createdAt,value
2018-09-08T00:00:30.604Z,93.34
2018-09-08T00:03:02.195Z,92.60
2018-09-08T00:05:32.896Z,92.00
2018-09-08T00:08:02.332Z,92.11
2018-09-08T00:10:31.809Z,91.30
2018-09-08T00:13:01.300Z,91.22
2018-09-08T00:15:35.988Z,90.75
2018-09-08T00:18:10.945Z,90.64
2018-09-08T00:20:45.722Z,88.88
2018-09-08T00:23:20.255Z,86.71
2018-09-08T00:25:54.872Z,85.64
2018-09-08T00:28:29.502Z,83.16
2018-09-08T00:30:59.679Z,81.87
2018-09-08T00:33:29.216Z,80.65
2018-09-08T00:35:58.687Z,79.02
2018-09-08T00:38:28.220Z,80.35
2018-09-08T00:40:57.928Z,80.78
2018-09-08T00:43:27.352Z,79.86
2018-09-08T00:45:56.905Z,80.42
2018-09-08T00:48:26.371Z,82.29
2018-09-08T00:50:55.809Z,80.27
2018-09-08T00:53:26.188Z,80.47
2018-09-08T00:55:55.641Z,81.29
2018-09-08T00:58:25.176Z,81.38
2018-09-08T01:00:54.692Z,82.08
2018-09-08T01:03:24.122Z,83.54
2018-09-08T01:05:54.305Z,82.47
2018-09-08T01:08:23.846Z,82.94
2018-09-08T01:10:53.305Z,82.16
2018-09-08T01:13:22.833Z,82.13
2018-09-08T01:15:52.309Z,82.48
2018-09-08T01:18:21.802Z,83.22
2018-09-08T01:20:51.293Z,81.83
2018-09-08T01:23:20.724Z,82.62
2018-09-08T01:25:50.195Z,81.76
2018-09-08T01:28:19.724Z,82.27
2018-09-08T01:30:49.212Z,82.08
2018-09-08T01:33:18.709Z,81.93
2018-09-08T01:35:48.176Z,81.99
2018-09-08T01:38:17.641Z,81.98
2018-09-08T01:40:47.184Z,82.18
2018-09-08T01:43:16.671Z,82.31
2018-09-08T01:45:46.121Z,81.59
2018-09-08T01:48:15.601Z,81.53
2018-09-08T01:50:45.026Z,80.72
2018-09-08T01:53:14.521Z,80.78
2018-09-08T01:55:44.090Z,81.74
2018-09-08T01:58:13.537Z,81.34
2018-09-08T02:00:43.017Z,80.99
2018-09-08T02:03:12.614Z,81.14
2018-09-08T02:05:42.058Z,80.82
2018-09-08T02:08:11.558Z,81.57
2018-09-08T02:10:41.187Z,81.28
2018-09-08T02:13:11.016Z,81.36
2018-09-08T02:15:40.491Z,81.60
2018-09-08T02:18:09.968Z,81.56
2018-09-08T02:20:39.442Z,81.33
2018-09-08T02:23:08.935Z,81.10
2018-09-08T02:25:38.391Z,80.92
2018-09-08T02:28:07.899Z,80.72
2018-09-08T02:30:37.374Z,80.51
2018-09-08T02:33:06.854Z,80.64
2018-09-08T02:35:36.352Z,80.90
2018-09-08T02:38:05.873Z,80.99
2018-09-08T02:40:35.453Z,81.04
2018-09-08T02:43:05.000Z,81.53
2018-09-08T02:45:34.500Z,81.11
2018-09-08T02:48:04.001Z,81.55
2018-09-08T02:50:35.334Z,81.11
2018-09-08T02:53:03.762Z,80.96
2018-09-08T02:55:32.141Z,81.20
2018-09-08T02:58:00.257Z,81.07
2018-09-08T03:00:29.214Z,81.27
2018-09-08T03:02:57.045Z,82.05
2018-09-08T03:05:24.827Z,81.69
2018-09-08T03:07:52.634Z,81.65
2018-09-08T03:10:21.292Z,81.86
2018-09-08T03:12:49.070Z,82.88
2018-09-08T03:15:16.846Z,82.04
2018-09-08T03:17:44.711Z,83.06
2018-09-08T03:20:12.476Z,82.95
2018-09-08T03:22:40.268Z,83.28
2018-09-08T03:25:08.106Z,83.24
2018-09-08T03:27:35.882Z,82.32
2018-09-08T03:30:03.665Z,83.09
2018-09-08T03:32:31.473Z,83.03
2018-09-08T03:34:59.277Z,83.10
2018-09-08T03:37:27.060Z,83.57
2018-09-08T03:39:54.882Z,83.78
2018-09-08T03:42:22.642Z,83.90
2018-09-08T03:44:50.442Z,84.42
2018-09-08T03:47:18.244Z,84.37
2018-09-08T03:49:46.115Z,84.41
2018-09-08T03:52:13.954Z,84.55
2018-09-08T03:54:41.724Z,84.91
2018-09-08T03:57:09.513Z,85.54
2018-09-08T03:59:37.345Z,84.73
2018-09-08T04:02:05.114Z,84.65
2018-09-08T04:04:34.552Z,85.26
2018-09-08T04:07:04.025Z,85.35
2018-09-08T04:09:33.423Z,85.40
2018-09-08T04:12:02.879Z,85.62
2018-09-08T04:14:32.385Z,85.41
2018-09-08T04:17:01.887Z,85.54
2018-09-08T04:19:31.365Z,85.31
2018-09-08T04:22:00.918Z,85.64
2018-09-08T04:24:30.409Z,85.60
2018-09-08T04:26:59.875Z,85.55
2018-09-08T04:29:29.422Z,85.73
2018-09-08T04:31:58.780Z,85.04
2018-09-08T04:34:28.249Z,84.82
2018-09-08T04:36:57.690Z,84.90
2018-09-08T04:39:27.171Z,85.71
2018-09-08T04:41:56.651Z,86.05
2018-09-08T04:44:26.742Z,85.73
2018-09-08T04:46:56.273Z,85.42
2018-09-08T04:49:25.769Z,85.22
2018-09-08T04:51:55.259Z,85.89
2018-09-08T04:54:24.832Z,85.44
2018-09-08T04:56:54.410Z,85.46
2018-09-08T04:59:23.919Z,85.43
2018-09-08T05:01:53.463Z,85.59
2018-09-08T05:04:22.971Z,85.15
2018-09-08T05:06:52.492Z,85.66
2018-09-08T05:09:22.042Z,84.73
2018-09-08T05:11:51.672Z,85.69
2018-09-08T05:14:21.290Z,85.34
2018-09-08T05:16:50.780Z,84.96
2018-09-08T05:19:20.223Z,84.94
2018-09-08T05:21:49.894Z,85.04
2018-09-08T05:24:19.455Z,84.92
2018-09-08T05:26:49.020Z,84.71
2018-09-08T05:29:18.497Z,84.49
2018-09-08T05:31:48.078Z,83.80
2018-09-08T05:34:17.657Z,84.07
2018-09-08T05:36:47.105Z,83.71
2018-09-08T05:39:16.716Z,83.14
2018-09-08T05:41:46.225Z,82.79
2018-09-08T05:44:15.979Z,83.95
2018-09-08T05:46:45.755Z,82.73
2018-09-08T05:49:15.481Z,83.62
2018-09-08T05:51:44.957Z,83.64
2018-09-08T05:54:14.491Z,83.25
2018-09-08T05:56:44.033Z,83.10
2018-09-08T05:59:13.506Z,83.12
2018-09-08T06:01:42.971Z,82.31
2018-09-08T06:04:12.734Z,82.78
2018-09-08T06:06:42.416Z,82.32
2018-09-08T06:09:12.004Z,82.48
2018-09-08T06:11:41.441Z,82.24
2018-09-08T06:14:10.940Z,83.28
2018-09-08T06:16:40.457Z,83.15
2018-09-08T06:19:10.029Z,83.35
2018-09-08T06:21:39.992Z,82.71
2018-09-08T06:24:09.465Z,82.61
2018-09-08T06:26:38.962Z,82.29
2018-09-08T06:29:08.434Z,83.04
2018-09-08T06:31:37.917Z,82.49
2018-09-08T06:34:08.313Z,82.91
2018-09-08T06:36:37.907Z,82.76
2018-09-08T06:39:11.612Z,83.06
2018-09-08T06:41:41.578Z,83.22
2018-09-08T06:44:11.087Z,82.45
2018-09-08T06:46:40.797Z,82.65
2018-09-08T06:49:10.276Z,82.62
2018-09-08T06:51:39.756Z,82.85
2018-09-08T06:54:09.282Z,82.57
2018-09-08T06:56:38.813Z,82.83
2018-09-08T06:59:08.427Z,82.13
2018-09-08T07:01:37.852Z,81.90
2018-09-08T07:04:07.481Z,81.89
2018-09-08T07:06:36.956Z,82.02
2018-09-08T07:09:10.122Z,81.79
2018-09-08T07:11:39.666Z,81.94
2018-09-08T07:14:09.087Z,81.67
2018-09-08T07:16:38.504Z,81.71
2018-09-08T07:19:08.105Z,81.04
2018-09-08T07:21:38.397Z,80.42
2018-09-08T07:24:07.890Z,80.39
2018-09-08T07:26:37.423Z,79.89
2018-09-08T07:29:06.998Z,80.23
2018-09-08T07:31:36.537Z,79.36
2018-09-08T07:34:06.284Z,79.79
2018-09-08T07:36:36.461Z,80.25
2018-09-08T07:39:09.206Z,80.33
2018-09-08T07:41:38.725Z,79.44
2018-09-08T07:44:08.375Z,79.46
2018-09-08T07:46:38.478Z,79.31
2018-09-08T07:49:08.061Z,78.51
2018-09-08T07:51:37.569Z,79.12
2018-09-08T07:54:07.866Z,78.82
2018-09-08T07:56:37.303Z,78.42
2018-09-08T07:59:07.473Z,78.29
2018-09-08T08:01:37.031Z,77.76
2018-09-08T08:04:06.479Z,77.33
2018-09-08T08:06:35.915Z,77.52
2018-09-08T08:09:07.465Z,76.87
2018-09-08T08:11:36.935Z,77.15
2018-09-08T08:14:06.758Z,77.77
2018-09-08T08:16:36.343Z,76.88
2018-09-08T08:19:05.928Z,76.64
2018-09-08T08:21:35.446Z,76.03
2018-09-08T08:24:05.051Z,76.72
2018-09-08T08:26:34.512Z,77.14
2018-09-08T08:29:04.023Z,77.01
2018-09-08T08:31:33.485Z,76.35
2018-09-08T08:34:03.528Z,76.23
2018-09-08T08:36:33.119Z,76.56
2018-09-08T08:39:02.610Z,76.43
2018-09-08T08:41:32.303Z,77.10
2018-09-08T08:44:01.817Z,76.04
2018-09-08T08:46:31.211Z,75.99
2018-09-08T08:49:00.669Z,75.55
2018-09-08T08:51:47.197Z,75.74
2018-09-08T08:54:23.342Z,75.61
2018-09-08T08:56:52.965Z,75.58
2018-09-08T08:59:23.044Z,75.13
2018-09-08T09:01:52.505Z,74.89
2018-09-08T09:04:22.026Z,75.26
2018-09-08T09:06:51.501Z,74.30
2018-09-08T09:09:21.142Z,74.01
2018-09-08T09:11:51.472Z,74.87
2018-09-08T09:14:20.548Z,74.40
2018-09-08T09:16:50.134Z,73.88
2018-09-08T09:19:42.232Z,73.52
2018-09-08T09:22:29.267Z,74.87
2018-09-08T09:25:06.951Z,74.04
2018-09-08T09:27:39.138Z,71.95
2018-09-08T09:30:09.965Z,72.03
2018-09-08T09:32:39.450Z,69.96
2018-09-08T09:35:11.423Z,71.36
2018-09-08T09:37:41.010Z,69.84
2018-09-08T09:40:11.255Z,69.61
2018-09-08T09:42:40.746Z,70.57
2018-09-08T09:45:11.080Z,70.90
2018-09-08T09:47:40.544Z,70.21
2018-09-08T09:50:11.689Z,69.94
2018-09-08T09:52:41.499Z,68.77
2018-09-08T09:55:11.143Z,69.07
2018-09-08T09:57:40.659Z,68.45
2018-09-08T10:00:15.268Z,67.07
2018-09-08T10:02:49.697Z,66.12
2018-09-08T10:05:20.437Z,67.11
2018-09-08T10:07:50.674Z,66.31
2018-09-08T10:10:24.637Z,65.82
2018-09-08T10:12:54.210Z,64.22
2018-09-08T10:15:23.879Z,64.59
2018-09-08T10:17:53.425Z,65.63
2018-09-08T10:20:23.929Z,64.65
2018-09-08T10:22:53.445Z,64.07
2018-09-08T10:25:23.440Z,64.32
2018-09-08T10:27:52.965Z,64.16
2018-09-08T10:30:22.648Z,63.62
2018-09-08T10:32:52.168Z,63.20
2018-09-08T10:35:21.849Z,61.82
2018-09-08T10:37:51.286Z,61.99
2018-09-08T10:40:20.848Z,60.06
2018-09-08T10:42:50.336Z,59.94
2018-09-08T10:45:19.761Z,59.22
2018-09-08T10:47:49.422Z,58.52
2018-09-08T10:50:18.918Z,59.09
2018-09-08T10:52:49.816Z,57.49
2018-09-08T10:55:19.540Z,57.85
2018-09-08T10:57:49.189Z,56.94
2018-09-08T11:00:18.798Z,58.19
2018-09-08T11:02:48.486Z,57.86
2018-09-08T11:05:17.774Z,57.87
2018-09-08T11:07:47.281Z,57.56
2018-09-08T11:10:16.833Z,58.35
2018-09-08T11:12:46.429Z,57.74
2018-09-08T11:15:15.956Z,58.12
2018-09-08T11:17:45.550Z,56.72
2018-09-08T11:20:15.061Z,56.99
2018-09-08T11:22:44.572Z,57.61
2018-09-08T11:25:14.032Z,57.50
2018-09-08T11:27:43.543Z,56.88
2018-09-08T11:30:13.033Z,55.99
2018-09-08T11:32:42.604Z,55.45
2018-09-08T11:35:12.095Z,56.55
2018-09-08T11:37:41.604Z,56.39
2018-09-08T11:40:11.132Z,57.30
2018-09-08T11:42:40.616Z,57.13
2018-09-08T11:45:11.087Z,56.10
2018-09-08T11:47:40.747Z,53.59
2018-09-08T11:50:10.191Z,53.07
2018-09-08T11:52:39.781Z,51.39
2018-09-08T11:55:09.306Z,51.48
2018-09-08T11:57:39.300Z,52.14
2018-09-08T12:00:08.918Z,52.56
2018-09-08T12:02:38.491Z,50.79
2018-09-08T12:05:08.248Z,51.37
2018-09-08T12:07:37.708Z,51.16
2018-09-08T12:10:07.442Z,49.79
2018-09-08T12:12:36.940Z,50.54
2018-09-08T12:15:07.661Z,48.74
2018-09-08T12:17:37.195Z,48.30
2018-09-08T12:20:06.922Z,48.83
2018-09-08T12:22:36.461Z,48.39
2018-09-08T12:25:06.006Z,48.71
2018-09-08T12:27:35.532Z,47.88
2018-09-08T12:30:05.233Z,47.68
2018-09-08T12:32:34.869Z,48.36
2018-09-08T12:35:04.355Z,47.80
2018-09-08T12:37:34.368Z,47.08
2018-09-08T12:40:04.028Z,45.33
2018-09-08T12:42:33.685Z,43.22
2018-09-08T12:45:03.503Z,43.14
2018-09-08T12:47:32.972Z,39.16
2018-09-08T12:50:02.556Z,38.22
2018-09-08T12:52:32.107Z,38.74
2018-09-08T12:55:01.633Z,41.41
2018-09-08T12:57:31.385Z,44.54
2018-09-08T13:00:01.079Z,44.75
2018-09-08T13:02:30.776Z,45.40
2018-09-08T13:05:00.232Z,45.74
2018-09-08T13:07:29.919Z,42.40
2018-09-08T13:09:59.510Z,39.52
2018-09-08T13:12:29.020Z,39.42
2018-09-08T13:14:58.494Z,39.66
2018-09-08T13:17:27.932Z,37.66
2018-09-08T13:19:58.174Z,34.72
2018-09-08T13:22:27.828Z,32.33
2018-09-08T13:24:57.729Z,30.65
2018-09-08T13:27:27.261Z,32.55
2018-09-08T13:29:56.952Z,32.05
2018-09-08T13:32:26.488Z,33.65
2018-09-08T13:34:56.635Z,34.67
2018-09-08T13:37:26.381Z,33.59
2018-09-08T13:39:55.963Z,34.15
2018-09-08T13:42:25.519Z,31.72
2018-09-08T13:44:55.191Z,30.99
2018-09-08T13:47:24.934Z,31.14
2018-09-08T13:49:54.419Z,33.83
2018-09-08T13:52:23.860Z,34.99
2018-09-08T13:54:53.374Z,37.00
2018-09-08T13:57:23.020Z,38.51
2018-09-08T13:59:52.565Z,37.19
2018-09-08T14:02:22.184Z,36.34
2018-09-08T14:04:51.689Z,35.11
2018-09-08T14:07:21.188Z,35.49
2018-09-08T14:09:50.716Z,32.31
2018-09-08T14:12:20.310Z,31.85
2018-09-08T14:14:49.834Z,32.13
2018-09-08T14:17:19.333Z,30.80
2018-09-08T14:19:48.976Z,29.09
2018-09-08T14:22:18.653Z,28.75
2018-09-08T14:24:48.157Z,31.48
2018-09-08T14:27:17.678Z,33.41
2018-09-08T14:29:47.275Z,34.62
2018-09-08T14:32:16.855Z,36.88
2018-09-08T14:34:46.290Z,37.42
2018-09-08T14:37:15.890Z,35.89
2018-09-08T14:39:45.579Z,34.76
2018-09-08T14:42:15.108Z,37.28
2018-09-08T14:44:44.750Z,40.41
2018-09-08T14:47:14.211Z,40.35
2018-09-08T14:49:43.713Z,40.14
2018-09-08T14:52:13.318Z,42.40
2018-09-08T14:54:42.816Z,40.99
2018-09-08T14:57:12.420Z,39.34
2018-09-08T14:59:41.987Z,37.47
2018-09-08T15:02:11.472Z,38.66
2018-09-08T15:04:41.297Z,38.42
2018-09-08T15:07:10.822Z,40.48
2018-09-08T15:09:40.281Z,39.56
2018-09-08T15:12:09.813Z,41.51
2018-09-08T15:14:39.268Z,41.45
2018-09-08T15:17:08.789Z,39.14
2018-09-08T15:19:38.402Z,38.37
2018-09-08T15:22:08.153Z,36.42
2018-09-08T15:24:37.701Z,36.80
2018-09-08T15:27:07.217Z,37.51
2018-09-08T15:29:36.773Z,38.78
2018-09-08T15:32:06.363Z,40.47
2018-09-08T15:34:35.930Z,40.72
2018-09-08T15:37:05.400Z,42.11
2018-09-08T15:39:34.936Z,41.10
2018-09-08T15:42:04.650Z,42.25
2018-09-08T15:44:34.116Z,42.79
2018-09-08T15:47:03.573Z,44.03
2018-09-08T15:49:33.078Z,45.38
2018-09-08T15:52:02.617Z,45.34
2018-09-08T15:54:32.208Z,46.09
2018-09-08T15:57:01.882Z,45.96
2018-09-08T15:59:31.484Z,44.18
2018-09-08T16:02:00.929Z,42.76
2018-09-08T16:04:30.510Z,39.59
2018-09-08T16:06:59.966Z,39.77
2018-09-08T16:09:29.418Z,39.65
2018-09-08T16:11:58.885Z,40.34
2018-09-08T16:14:28.540Z,41.55
2018-09-08T16:16:57.982Z,42.15
2018-09-08T16:19:27.533Z,43.21
2018-09-08T16:21:57.114Z,46.08
2018-09-08T16:24:26.607Z,45.83
2018-09-08T16:26:57.274Z,47.63
2018-09-08T16:29:26.744Z,47.50
2018-09-08T16:31:56.221Z,47.24
2018-09-08T16:34:25.726Z,46.76
2018-09-08T16:36:56.120Z,47.71
2018-09-08T16:39:25.701Z,47.98
2018-09-08T16:41:55.373Z,48.48
2018-09-08T16:44:24.910Z,49.30
2018-09-08T16:46:54.347Z,48.86
2018-09-08T16:49:23.870Z,49.62
2018-09-08T16:51:53.378Z,48.85
2018-09-08T16:54:22.873Z,49.76
2018-09-08T16:56:52.474Z,49.68
2018-09-08T16:59:22.045Z,49.33
2018-09-08T17:01:51.603Z,50.50
2018-09-08T17:04:21.027Z,50.46
2018-09-08T17:06:50.710Z,51.51
2018-09-08T17:09:20.364Z,50.97
2018-09-08T17:11:49.991Z,51.08
2018-09-08T17:14:19.449Z,52.21
2018-09-08T17:16:48.986Z,52.72
2018-09-08T17:19:18.649Z,52.44
2018-09-08T17:21:48.114Z,51.56
2018-09-08T17:24:17.684Z,51.74
2018-09-08T17:26:48.133Z,51.78
2018-09-08T17:29:17.698Z,51.62
2018-09-08T17:31:47.314Z,52.03
2018-09-08T17:34:16.904Z,52.01
2018-09-08T17:36:46.423Z,51.28
2018-09-08T17:39:16.321Z,52.13
2018-09-08T17:41:46.629Z,51.39
2018-09-08T17:44:16.474Z,52.81
2018-09-08T17:46:45.962Z,52.25
2018-09-08T17:49:15.533Z,53.32
2018-09-08T17:51:45.988Z,53.00
2018-09-08T17:54:15.629Z,53.65
2018-09-08T17:56:47.221Z,53.74
2018-09-08T17:59:19.147Z,53.39
2018-09-08T18:01:49.946Z,53.52
2018-09-08T18:04:20.189Z,53.94
2018-09-08T18:06:49.876Z,53.86
2018-09-08T18:09:20.400Z,54.64
2018-09-08T18:11:50.035Z,56.01
2018-09-08T18:14:20.127Z,56.11
2018-09-08T18:16:50.549Z,56.06
2018-09-08T18:19:20.419Z,57.47
2018-09-08T18:21:50.183Z,55.94
2018-09-08T18:24:19.670Z,57.97
2018-09-08T18:26:49.196Z,56.76
2018-09-08T18:29:18.791Z,58.97
2018-09-08T18:31:49.091Z,59.40
2018-09-08T18:34:18.579Z,59.25
2018-09-08T18:36:48.069Z,59.88
2018-09-08T18:39:17.542Z,59.70
2018-09-08T18:41:47.114Z,59.88
2018-09-08T18:44:16.535Z,60.48
2018-09-08T18:46:46.660Z,62.50
2018-09-08T18:49:16.202Z,62.30
2018-09-08T18:51:45.782Z,62.04
2018-09-08T18:54:15.338Z,60.14
2018-09-08T18:56:44.802Z,61.07
2018-09-08T18:59:14.318Z,61.97
2018-09-08T19:01:43.822Z,61.85
2018-09-08T19:04:13.372Z,62.27
2018-09-08T19:06:42.871Z,61.48
2018-09-08T19:09:12.449Z,61.27
2018-09-08T19:11:42.137Z,61.76
2018-09-08T19:14:15.738Z,61.70
2018-09-08T19:16:45.252Z,61.27
2018-09-08T19:19:14.778Z,61.25
2018-09-08T19:21:44.348Z,63.08
2018-09-08T19:24:18.970Z,62.38
2018-09-08T19:26:48.724Z,62.24
2018-09-08T19:29:23.424Z,61.81
2018-09-08T19:31:52.985Z,61.64
2018-09-08T19:34:22.407Z,61.45
2018-09-08T19:36:51.856Z,60.05
2018-09-08T19:39:21.325Z,60.99
2018-09-08T19:41:51.182Z,60.62
2018-09-08T19:44:20.685Z,59.93
2018-09-08T19:46:55.314Z,60.43
2018-09-08T19:49:24.847Z,60.74
2018-09-08T19:51:54.301Z,59.85
2018-09-08T19:54:23.790Z,61.78
2018-09-08T19:56:58.418Z,61.47
2018-09-08T19:59:27.901Z,61.79
2018-09-08T20:01:57.449Z,62.78
2018-09-08T20:04:26.900Z,61.43
2018-09-08T20:06:56.423Z,61.63
2018-09-08T20:09:25.941Z,62.10
2018-09-08T20:11:55.382Z,60.14
2018-09-08T20:14:24.894Z,60.55
2018-09-08T20:16:54.360Z,60.62
2018-09-08T20:19:23.924Z,61.93
2018-09-08T20:21:53.333Z,61.17
2018-09-08T20:24:22.809Z,61.67
2018-09-08T20:26:52.443Z,61.32
2018-09-08T20:29:21.785Z,60.85
2018-09-08T20:31:51.294Z,61.65
2018-09-08T20:34:20.909Z,61.13
2018-09-08T20:36:50.383Z,62.24
2018-09-08T20:39:19.893Z,62.41
2018-09-08T20:41:49.337Z,63.65
2018-09-08T20:44:18.877Z,63.27
2018-09-08T20:46:48.382Z,62.56
2018-09-08T20:49:17.790Z,62.54
2018-09-08T20:51:47.369Z,62.39
2018-09-08T20:54:17.048Z,62.02
2018-09-08T20:56:46.519Z,61.52
2018-09-08T20:59:16.047Z,62.61
2018-09-08T21:01:45.589Z,61.74
2018-09-08T21:04:15.294Z,61.86
2018-09-08T21:06:44.766Z,63.32
2018-09-08T21:09:14.221Z,62.35
2018-09-08T21:11:43.710Z,62.63
2018-09-08T21:14:13.126Z,63.41
2018-09-08T21:16:42.636Z,62.85
2018-09-08T21:19:12.136Z,64.33
2018-09-08T21:21:41.597Z,65.00
2018-09-08T21:24:11.093Z,64.29
2018-09-08T21:26:40.542Z,64.47
2018-09-08T21:29:10.051Z,64.85
2018-09-08T21:31:39.531Z,65.32
2018-09-08T21:34:09.829Z,65.62
2018-09-08T21:36:39.310Z,66.38
2018-09-08T21:39:10.363Z,66.11
2018-09-08T21:41:39.877Z,65.27
2018-09-08T21:44:09.341Z,66.23
2018-09-08T21:46:38.900Z,66.05
2018-09-08T21:49:08.348Z,66.11
2018-09-08T21:51:37.800Z,65.93
2018-09-08T21:54:07.327Z,65.25
2018-09-08T21:56:36.800Z,65.30
2018-09-08T21:59:06.502Z,67.08
2018-09-08T22:01:35.960Z,66.69
2018-09-08T22:05:34.501Z,66.54
2018-09-08T22:08:03.979Z,66.48
2018-09-08T22:10:33.438Z,67.19
2018-09-08T22:13:02.959Z,65.12
2018-09-08T22:15:32.435Z,66.29
2018-09-08T22:18:01.978Z,65.28
2018-09-08T22:20:31.550Z,64.78
2018-09-08T22:23:01.098Z,65.55
2018-09-08T22:25:30.543Z,64.82
2018-09-08T22:27:59.998Z,64.09
2018-09-08T22:30:29.471Z,63.83
2018-09-08T22:32:58.990Z,64.07
2018-09-08T22:35:28.384Z,64.01
2018-09-08T22:37:57.909Z,62.91
2018-09-08T22:40:27.437Z,63.38
2018-09-08T22:42:56.882Z,63.35
2018-09-08T22:45:26.373Z,63.23
2018-09-08T22:47:55.781Z,63.04
2018-09-08T22:50:25.248Z,63.08
2018-09-08T22:52:54.730Z,62.75
2018-09-08T22:55:24.192Z,62.07
2018-09-08T22:57:53.732Z,62.98
2018-09-08T23:00:23.208Z,62.47
2018-09-08T23:02:52.635Z,62.91
2018-09-08T23:05:22.094Z,63.76
2018-09-08T23:07:51.558Z,63.76
2018-09-08T23:10:21.012Z,63.33
2018-09-08T23:12:50.501Z,63.57
2018-09-08T23:15:20.014Z,63.20
2018-09-08T23:17:49.496Z,63.40
2018-09-08T23:20:18.970Z,63.99
2018-09-08T23:22:48.407Z,63.41
2018-09-08T23:25:17.936Z,64.15
2018-09-08T23:27:47.782Z,63.83
2018-09-08T23:31:46.729Z,65.39
2018-09-08T23:34:16.384Z,64.18
2018-09-08T23:36:45.862Z,63.94
2018-09-08T23:39:15.288Z,64.68
2018-09-08T23:41:44.777Z,64.68
2018-09-08T23:44:14.266Z,64.71
2018-09-08T23:46:43.778Z,65.12
2018-09-08T23:49:13.245Z,65.18
2018-09-08T23:51:42.765Z,65.36
2018-09-08T23:54:12.286Z,64.84
2018-09-08T23:56:41.757Z,65.15
2018-09-08T23:59:11.250Z,66.06
